Owls Head, New York
Current Conditions -  °F | °C
As of 4:51 PM on Thursday 27 Nov 2014 (Local Time) from KSLK Reporting Station
Overcast Overcast  
Wind Chill: 23°   Ceiling: 1400
Heat Index: 23°   Visibility: 10mi
Dew Point: 19°   Wind: 0mph
Humidity: 85%   Direction: NA
Pressure: 29.93"   Gusts: NA
Location:  44.73°N, 74.17°W
Report Text: KSLK 272151Z AUTO 00000KT 10SM OVC014 M05/M07 A2993 RMK AO2 SLP160 T10501072 $
Loading
Personal Weather Stations






























Interactive Weather Map New forecast layout! Learn more

10-Day Weather Forecast

Advertisements
Track Severe Weather on mobile